Aérodrome :
LOGIN :

S'inscrire | Disclaimer

   EN    FR    IT 

 










Légende :    VFR   VFR Marginal   IFR   IFR Intensif   IFR Très Intensif
Visi : 
Plafond : 
>= 8 km
>= 3000ft
5 à 8 km
1000 à 3000 ft
1500m à 5 km
500 à 1000 ft
800 à 1500m
200 à 500 ft
< 800m
< 200 ft
Symboles :   Orages  Brouillard  Fortes neiges  Fortes précipitations  Vent > 20 kt
SIGMETs :   Divers  Orages  Givrage  Turbulence  Onde Orograph.  Cendres Volcan.







- Altitude de l'aérodrome : 458 ft
- Voir les cartes d'approche


LFSI - St-Dizier

DERNIER METAR :
  • 181930Z AUTO 12009KT 090V150 9999 OVC012 M00/M02 Q1024

METARs EXPIRÉS :
  • 181900Z AUTO 14008KT 9999 OVC012 M00/M02 Q1024
  • 181830Z AUTO 11006KT 9000 OVC012 00/M01 Q1024
  • 181800Z AUTO 11008KT 9000 SCT012 BKN250 M00/M02 Q1024
  • 181730Z AUTO 10008KT 9000 NSC M00/M02 Q1024
  • 181700Z AUTO 11010KT CAVOK 01/M02 Q1024

TAF TAF LFSI
Valide du 18 à 15h jusqu'au 19 à 15h UTC


181400Z 1815/1915 VRB02KT 7000 NSC
TEMPO 1819/1908 4000 BR
PROB40
TEMPO 1819/1908 0800 FZFG VV///
Pas de NOTAMs connus pour ce terrain.



MET'MAP, la Météo Aéronautique d'un coup d'oeil ! - Copyright ORBIFLY Décembre 2007 - Disclaimer

ORBIFLY MET'MAP TEAM :

Programmation & Développement : Alexandra Zaïnal
Conception & Développement : Baudouin d'Aumeries
Co-Programmation & Développement : Marc-Olivier Méhu
Soutien technique & logistique : Manuel Goepfert

Contact : metmap@orbifly.com




SOURCES & CREDITS :

   NOAA